N10HP KADS-

Flight info

Callsign N10HP
Flight time N/A
Altitude VFR
Route
Aircraft PC12/L-DOV/C

Departure

Time 2026-04-26 22:33
Airport Addison Airport (KADS)

Arrival

Time N/A
Airport -
Time Latitude Longitude Altitude Speed Heading
2026-04-26 22:31 32.97371 -96.83771 632 ft 13 kts 342°
2026-04-26 22:31 32.97490 -96.83820 633 ft 18 kts 339°
2026-04-26 22:31 32.97629 -96.83879 634 ft 18 kts 339°
2026-04-26 22:31 32.97738 -96.83928 635 ft 15 kts 346°
2026-04-26 22:32 32.97806 -96.83938 636 ft 8 kts 14°
2026-04-26 22:32 32.97834 -96.83958 636 ft 3 kts 205°
2026-04-26 22:32 32.97785 -96.84006 635 ft 12 kts 234°
2026-04-26 22:32 32.97677 -96.84000 633 ft 44 kts 159°
2026-04-26 22:33 32.97174 -96.83778 755 ft 94 kts 158°
2026-04-26 22:33 32.95728 -96.83090 1636 ft 123 kts 155°
2026-04-26 22:33 32.95461 -96.82134 1753 ft 188 kts 51°
2026-04-26 22:34 32.96649 -96.82319 1900 ft 186 kts 331°
2026-04-26 22:34 32.97794 -96.82951 1399 ft 181 kts 333°
2026-04-26 22:34 32.98819 -96.83590 1334 ft 131 kts 300°
2026-04-26 22:34 32.98596 -96.84235 1180 ft 92 kts 187°
2026-04-26 22:35 32.98013 -96.84139 776 ft 89 kts 162°
2026-04-26 22:35 32.97463 -96.83910 644 ft 75 kts 156°
2026-04-26 22:35 32.97073 -96.83738 633 ft 61 kts 165°
2026-04-26 22:35 32.96606 -96.83495 885 ft 83 kts 155°
2026-04-26 22:36 32.95990 -96.83213 1162 ft 111 kts 163°
2026-04-26 22:36 32.95266 -96.82733 1510 ft 140 kts 117°
2026-04-26 22:36 32.95787 -96.81731 1798 ft 193 kts
2026-04-26 22:36 32.97178 -96.82269 1640 ft 209 kts 333°
2026-04-26 22:37 32.98249 -96.82001 1677 ft 141 kts 107°
2026-04-26 22:37 32.97611 -96.82019 1546 ft 169 kts 267°
2026-04-26 22:37 32.98076 -96.83391 1313 ft 189 kts 314°
2026-04-26 22:37 32.98684 -96.84312 1186 ft 120 kts 210°
2026-04-26 22:38 32.98014 -96.84144 869 ft 93 kts 161°
2026-04-26 22:38 32.97474 -96.83916 631 ft 58 kts 160°
2026-04-26 22:38 32.97058 -96.83728 651 ft 86 kts 156°
2026-04-26 22:38 32.96446 -96.83418 882 ft 114 kts 162°
2026-04-26 22:39 32.95578 -96.83154 1116 ft 144 kts 167°
2026-04-26 22:39 32.94562 -96.83082 1615 ft 148 kts 184°
2026-04-26 22:39 32.93606 -96.83155 2151 ft 151 kts 182°
2026-04-26 22:39 32.92405 -96.83241 2007 ft 188 kts 181°
2026-04-26 22:40 32.91015 -96.83329 1997 ft 204 kts 182°
2026-04-26 22:40 32.89685 -96.83926 2002 ft 219 kts 219°
2026-04-26 22:40 32.89061 -96.85593 2302 ft 228 kts 261°
2026-04-26 22:40 32.89172 -96.87460 2657 ft 216 kts 271°
2026-04-26 22:41 32.89393 -96.89108 2941 ft 201 kts 271°
2026-04-26 22:41 32.89619 -96.90812 2995 ft 220 kts 273°
2026-04-26 22:41 32.89849 -96.92683 2993 ft 233 kts 273°
2026-04-26 22:41 32.90085 -96.94634 2991 ft 242 kts 272°
2026-04-26 22:42 32.90326 -96.96628 2987 ft 247 kts 272°
2026-04-26 22:42 32.90567 -96.98686 2985 ft 251 kts 272°
2026-04-26 22:42 32.90821 -97.00750 2986 ft 253 kts 273°
2026-04-26 22:42 32.91061 -97.02749 3338 ft 239 kts 272°
2026-04-26 22:43 32.91302 -97.04672 3816 ft 226 kts 273°
2026-04-26 22:43 32.91521 -97.06477 4287 ft 217 kts 273°
2026-04-26 22:43 32.91722 -97.08262 4474 ft 223 kts 272°
2026-04-26 22:43 32.91930 -97.10006 4477 ft 205 kts 272°
2026-04-26 22:44 32.92122 -97.11648 4477 ft 196 kts 272°
2026-04-26 22:44 32.92314 -97.13235 4478 ft 190 kts 272°
2026-04-26 22:44 32.92499 -97.14838 4487 ft 206 kts 272°
2026-04-26 22:44 32.92694 -97.16611 4484 ft 223 kts 272°
2026-04-26 22:45 32.92896 -97.18501 4479 ft 235 kts 272°
2026-04-26 22:45 32.93105 -97.20461 4474 ft 241 kts 272°
2026-04-26 22:45 32.93324 -97.22471 4473 ft 246 kts 272°
2026-04-26 22:45 32.93534 -97.24504 4471 ft 249 kts 273°
2026-04-26 22:46 32.93728 -97.26554 4470 ft 250 kts 272°
2026-04-26 22:46 32.93944 -97.28629 4469 ft 251 kts 271°
2026-04-26 22:46 32.94148 -97.30711 4466 ft 252 kts 272°
2026-04-26 22:46 32.94474 -97.32780 4451 ft 258 kts 287°
2026-04-26 22:47 32.95591 -97.34400 4454 ft 251 kts 320°
2026-04-26 22:47 32.96999 -97.35568 4251 ft 252 kts 321°
2026-04-26 22:47 32.98428 -97.36662 4138 ft 233 kts 323°
2026-04-26 22:47 32.99754 -97.37682 3777 ft 219 kts 323°
2026-04-26 22:48 33.01146 -97.38313 3419 ft 212 kts 350°
2026-04-26 22:48 33.02584 -97.38522 3060 ft 206 kts 353°
2026-04-26 22:48 33.03985 -97.38665 2704 ft 201 kts
2026-04-26 22:48 33.05230 -97.38124 2494 ft 180 kts 49°
2026-04-26 22:49 33.05777 -97.36964 2471 ft 148 kts 86°
2026-04-26 22:49 33.05934 -97.35606 2494 ft 184 kts 92°
2026-04-26 22:49 33.06028 -97.33945 2406 ft 216 kts 92°
2026-04-26 22:49 33.06118 -97.32076 2382 ft 231 kts 92°
2026-04-26 22:50 33.06189 -97.30124 2379 ft 239 kts 94°
2026-04-26 22:50 33.06054 -97.28121 2376 ft 241 kts 102°
2026-04-26 22:50 33.05862 -97.26144 2370 ft 244 kts 102°
2026-04-26 22:50 33.05651 -97.24137 2375 ft 246 kts 103°
2026-04-26 22:51 33.05404 -97.22271 2361 ft 207 kts 109°
2026-04-26 22:51 33.05089 -97.20738 2361 ft 175 kts 110°
2026-04-26 22:51 33.04955 -97.19303 2384 ft 180 kts 102°
2026-04-26 22:51 33.04816 -97.17714 2389 ft 207 kts 102°
2026-04-26 22:52 33.04640 -97.15944 2381 ft 224 kts 102°
2026-04-26 22:52 33.04443 -97.14078 2376 ft 235 kts 102°
2026-04-26 22:52 33.04368 -97.12091 2378 ft 245 kts 92°
2026-04-26 22:52 33.04472 -97.10075 2356 ft 249 kts 92°
2026-04-26 22:53 33.04537 -97.08048 2087 ft 233 kts 94°
2026-04-26 22:53 33.04618 -97.06222 1888 ft 208 kts 93°
2026-04-26 22:53 33.04719 -97.04656 1872 ft 175 kts 94°
2026-04-26 22:53 33.04848 -97.03329 1865 ft 146 kts 93°
2026-04-26 22:54 33.04969 -97.02263 1852 ft 117 kts 94°
2026-04-26 22:54 33.05131 -97.01372 1804 ft 121 kts 77°
2026-04-26 22:54 33.05288 -97.00254 1902 ft 159 kts 92°
2026-04-26 22:54 33.05384 -96.98801 1892 ft 196 kts 92°